sensor_id;sensor_type;location;lat;lon;timestamp;P1;durP1;ratioP1;P2;durP2;ratioP2
15573;SDS011;7888;46.748;8.102;2022-12-29T00:00:00;0.90;;;0.70;;
15573;SDS011;7888;46.748;8.102;2022-12-29T00:02:28;1.13;;;0.77;;
15573;SDS011;7888;46.748;8.102;2022-12-29T00:04:54;0.67;;;0.53;;
15573;SDS011;7888;46.748;8.102;2022-12-29T00:07:19;0.90;;;0.50;;
15573;SDS011;7888;46.748;8.102;2022-12-29T00:09:45;0.90;;;0.80;;
15573;SDS011;7888;46.748;8.102;2022-12-29T00:12:11;0.60;;;0.40;;
15573;SDS011;7888;46.748;8.102;2022-12-29T00:14:37;0.80;;;0.60;;
15573;SDS011;7888;46.748;8.102;2022-12-29T00:17:21;1.43;;;0.50;;
15573;SDS011;7888;46.748;8.102;2022-12-29T00:19:47;0.70;;;0.60;;
15573;SDS011;7888;46.748;8.102;2022-12-29T00:22:31;0.80;;;0.63;;
15573;SDS011;7888;46.748;8.102;2022-12-29T00:25:15;1.37;;;0.93;;
15573;SDS011;7888;46.748;8.102;2022-12-29T00:28:00;0.70;;;0.70;;
15573;SDS011;7888;46.748;8.102;2022-12-29T00:30:44;0.63;;;0.63;;
15573;SDS011;7888;46.748;8.102;2022-12-29T00:33:29;1.10;;;0.73;;
15573;SDS011;7888;46.748;8.102;2022-12-29T00:36:18;0.73;;;0.73;;
15573;SDS011;7888;46.748;8.102;2022-12-29T00:38:57;0.70;;;0.70;;
15573;SDS011;7888;46.748;8.102;2022-12-29T00:41:48;0.60;;;0.60;;
15573;SDS011;7888;46.748;8.102;2022-12-29T00:44:32;0.50;;;0.50;;
15573;SDS011;7888;46.748;8.102;2022-12-29T00:46:58;0.40;;;0.30;;
15573;SDS011;7888;46.748;8.102;2022-12-29T00:49:28;0.60;;;0.43;;
15573;SDS011;7888;46.748;8.102;2022-12-29T00:51:58;0.30;;;0.30;;
15573;SDS011;7888;46.748;8.102;2022-12-29T00:54:31;0.30;;;0.30;;
15573;SDS011;7888;46.748;8.102;2022-12-29T00:57:01;0.57;;;0.43;;
15573;SDS011;7888;46.748;8.102;2022-12-29T00:59:28;0.93;;;0.77;;
15573;SDS011;7888;46.748;8.102;2022-12-29T01:01:54;0.50;;;0.40;;
15573;SDS011;7888;46.748;8.102;2022-12-29T01:04:21;0.40;;;0.40;;
15573;SDS011;7888;46.748;8.102;2022-12-29T01:06:49;0.90;;;0.30;;
15573;SDS011;7888;46.748;8.102;2022-12-29T01:09:15;0.50;;;0.43;;
15573;SDS011;7888;46.748;8.102;2022-12-29T01:12:01;0.80;;;0.40;;
15573;SDS011;7888;46.748;8.102;2022-12-29T01:14:28;0.50;;;0.40;;
15573;SDS011;7888;46.748;8.102;2022-12-29T01:16:55;1.03;;;0.80;;
15573;SDS011;7888;46.748;8.102;2022-12-29T01:19:21;2.07;;;0.70;;
15573;SDS011;7888;46.748;8.102;2022-12-29T01:21:48;0.87;;;0.60;;
15573;SDS011;7888;46.748;8.102;2022-12-29T01:24:14;1.00;;;0.60;;
15573;SDS011;7888;46.748;8.102;2022-12-29T01:26:41;0.70;;;0.50;;
15573;SDS011;7888;46.748;8.102;2022-12-29T01:29:07;0.33;;;0.33;;
15573;SDS011;7888;46.748;8.102;2022-12-29T01:31:33;0.30;;;0.30;;
15573;SDS011;7888;46.748;8.102;2022-12-29T01:33:59;2.43;;;0.30;;
15573;SDS011;7888;46.748;8.102;2022-12-29T01:36:25;1.67;;;0.60;;
15573;SDS011;7888;46.748;8.102;2022-12-29T01:38:51;1.13;;;0.53;;
15573;SDS011;7888;46.748;8.102;2022-12-29T01:41:17;0.30;;;0.30;;
15573;SDS011;7888;46.748;8.102;2022-12-29T01:43:53;0.87;;;0.47;;
15573;SDS011;7888;46.748;8.102;2022-12-29T01:46:23;0.33;;;0.33;;
15573;SDS011;7888;46.748;8.102;2022-12-29T01:49:19;0.53;;;0.30;;
15573;SDS011;7888;46.748;8.102;2022-12-29T01:51:55;1.53;;;0.90;;
15573;SDS011;7888;46.748;8.102;2022-12-29T01:57:02;1.27;;;1.00;;
15573;SDS011;7888;46.748;8.102;2022-12-29T01:59:40;1.03;;;0.90;;
15573;SDS011;7888;46.748;8.102;2022-12-29T02:02:19;0.70;;;0.70;;
15573;SDS011;7888;46.748;8.102;2022-12-29T02:04:45;0.50;;;0.50;;
15573;SDS011;7888;46.748;8.102;2022-12-29T02:07:13;1.00;;;0.60;;
15573;SDS011;7888;46.748;8.102;2022-12-29T02:09:48;0.50;;;0.50;;
15573;SDS011;7888;46.748;8.102;2022-12-29T02:12:17;0.50;;;0.40;;
15573;SDS011;7888;46.748;8.102;2022-12-29T02:14:46;0.40;;;0.40;;
15573;SDS011;7888;46.748;8.102;2022-12-29T02:17:22;0.47;;;0.30;;
15573;SDS011;7888;46.748;8.102;2022-12-29T02:26:27;0.67;;;0.57;;
15573;SDS011;7888;46.748;8.102;2022-12-29T02:44:01;1.63;;;0.60;;
15573;SDS011;7888;46.748;8.102;2022-12-29T02:46:58;0.60;;;0.40;;
15573;SDS011;7888;46.748;8.102;2022-12-29T02:49:41;0.40;;;0.40;;
15573;SDS011;7888;46.748;8.102;2022-12-29T02:52:31;0.50;;;0.43;;
15573;SDS011;7888;46.748;8.102;2022-12-29T02:55:04;0.73;;;0.30;;
15573;SDS011;7888;46.748;8.102;2022-12-29T02:57:33;0.30;;;0.30;;
15573;SDS011;7888;46.748;8.102;2022-12-29T03:00:10;0.57;;;0.30;;
15573;SDS011;7888;46.748;8.102;2022-12-29T03:08:47;0.47;;;0.30;;
15573;SDS011;7888;46.748;8.102;2022-12-29T03:11:19;0.27;;;0.27;;
15573;SDS011;7888;46.748;8.102;2022-12-29T03:14:25;0.40;;;0.30;;
15573;SDS011;7888;46.748;8.102;2022-12-29T03:17:26;0.30;;;0.27;;
15573;SDS011;7888;46.748;8.102;2022-12-29T03:20:07;0.40;;;0.40;;
15573;SDS011;7888;46.748;8.102;2022-12-29T03:22:41;1.07;;;0.30;;
15573;SDS011;7888;46.748;8.102;2022-12-29T03:25:18;0.93;;;0.40;;
15573;SDS011;7888;46.748;8.102;2022-12-29T03:27:58;0.53;;;0.50;;
15573;SDS011;7888;46.748;8.102;2022-12-29T03:30:31;0.43;;;0.43;;
15573;SDS011;7888;46.748;8.102;2022-12-29T03:33:02;0.40;;;0.40;;
15573;SDS011;7888;46.748;8.102;2022-12-29T03:35:36;0.90;;;0.67;;
15573;SDS011;7888;46.748;8.102;2022-12-29T03:38:16;0.60;;;0.50;;
15573;SDS011;7888;46.748;8.102;2022-12-29T03:41:17;0.40;;;0.40;;
15573;SDS011;7888;46.748;8.102;2022-12-29T03:43:49;0.40;;;0.40;;
15573;SDS011;7888;46.748;8.102;2022-12-29T03:46:15;0.90;;;0.60;;
15573;SDS011;7888;46.748;8.102;2022-12-29T03:48:40;0.40;;;0.40;;
15573;SDS011;7888;46.748;8.102;2022-12-29T03:51:06;0.40;;;0.40;;
15573;SDS011;7888;46.748;8.102;2022-12-29T03:53:32;0.43;;;0.40;;
15573;SDS011;7888;46.748;8.102;2022-12-29T03:55:58;0.40;;;0.40;;
15573;SDS011;7888;46.748;8.102;2022-12-29T03:58:23;0.40;;;0.40;;
15573;SDS011;7888;46.748;8.102;2022-12-29T04:00:49;3.40;;;0.80;;
15573;SDS011;7888;46.748;8.102;2022-12-29T04:03:15;0.70;;;0.67;;
15573;SDS011;7888;46.748;8.102;2022-12-29T04:05:41;1.07;;;0.97;;
15573;SDS011;7888;46.748;8.102;2022-12-29T04:08:06;0.93;;;0.67;;
15573;SDS011;7888;46.748;8.102;2022-12-29T04:10:32;1.23;;;0.80;;
15573;SDS011;7888;46.748;8.102;2022-12-29T04:12:58;1.10;;;0.80;;
15573;SDS011;7888;46.748;8.102;2022-12-29T04:15:24;0.63;;;0.60;;
15573;SDS011;7888;46.748;8.102;2022-12-29T04:17:51;0.70;;;0.60;;
15573;SDS011;7888;46.748;8.102;2022-12-29T04:20:17;0.40;;;0.40;;
15573;SDS011;7888;46.748;8.102;2022-12-29T04:23:02;1.50;;;0.60;;
15573;SDS011;7888;46.748;8.102;2022-12-29T04:25:30;1.97;;;0.40;;
15573;SDS011;7888;46.748;8.102;2022-12-29T04:27:56;0.60;;;0.60;;
15573;SDS011;7888;46.748;8.102;2022-12-29T04:30:22;0.50;;;0.50;;
15573;SDS011;7888;46.748;8.102;2022-12-29T04:32:48;0.57;;;0.43;;
15573;SDS011;7888;46.748;8.102;2022-12-29T04:35:14;0.60;;;0.60;;
15573;SDS011;7888;46.748;8.102;2022-12-29T04:37:40;0.80;;;0.73;;
15573;SDS011;7888;46.748;8.102;2022-12-29T04:40:06;0.60;;;0.60;;
15573;SDS011;7888;46.748;8.102;2022-12-29T04:42:33;1.70;;;0.70;;
15573;SDS011;7888;46.748;8.102;2022-12-29T04:44:59;2.97;;;0.50;;
15573;SDS011;7888;46.748;8.102;2022-12-29T04:47:25;0.90;;;0.50;;
15573;SDS011;7888;46.748;8.102;2022-12-29T04:49:50;0.37;;;0.30;;
15573;SDS011;7888;46.748;8.102;2022-12-29T04:52:16;0.40;;;0.40;;
15573;SDS011;7888;46.748;8.102;2022-12-29T04:54:42;0.60;;;0.40;;
15573;SDS011;7888;46.748;8.102;2022-12-29T04:57:08;0.30;;;0.30;;
15573;SDS011;7888;46.748;8.102;2022-12-29T04:59:33;1.50;;;0.40;;
15573;SDS011;7888;46.748;8.102;2022-12-29T05:01:59;0.80;;;0.40;;
15573;SDS011;7888;46.748;8.102;2022-12-29T05:04:25;1.90;;;0.50;;
15573;SDS011;7888;46.748;8.102;2022-12-29T05:06:51;0.67;;;0.60;;
15573;SDS011;7888;46.748;8.102;2022-12-29T05:09:16;0.40;;;0.40;;
15573;SDS011;7888;46.748;8.102;2022-12-29T05:11:42;0.60;;;0.60;;
15573;SDS011;7888;46.748;8.102;2022-12-29T05:14:08;3.20;;;1.07;;
15573;SDS011;7888;46.748;8.102;2022-12-29T05:16:34;1.67;;;1.30;;
15573;SDS011;7888;46.748;8.102;2022-12-29T05:19:00;0.97;;;0.90;;
15573;SDS011;7888;46.748;8.102;2022-12-29T05:21:26;0.90;;;0.90;;
15573;SDS011;7888;46.748;8.102;2022-12-29T05:23:51;1.17;;;0.93;;
15573;SDS011;7888;46.748;8.102;2022-12-29T05:26:17;1.67;;;0.90;;
15573;SDS011;7888;46.748;8.102;2022-12-29T05:28:43;0.43;;;0.43;;
15573;SDS011;7888;46.748;8.102;2022-12-29T05:31:09;0.50;;;0.50;;
15573;SDS011;7888;46.748;8.102;2022-12-29T05:33:34;1.20;;;0.60;;
15573;SDS011;7888;46.748;8.102;2022-12-29T05:36:04;0.50;;;0.50;;
15573;SDS011;7888;46.748;8.102;2022-12-29T05:38:32;0.47;;;0.47;;
15573;SDS011;7888;46.748;8.102;2022-12-29T05:40:58;0.50;;;0.50;;
15573;SDS011;7888;46.748;8.102;2022-12-29T05:43:24;0.37;;;0.30;;
15573;SDS011;7888;46.748;8.102;2022-12-29T05:45:50;0.70;;;0.37;;
15573;SDS011;7888;46.748;8.102;2022-12-29T05:48:17;0.40;;;0.33;;
15573;SDS011;7888;46.748;8.102;2022-12-29T05:50:46;0.73;;;0.60;;
15573;SDS011;7888;46.748;8.102;2022-12-29T05:53:14;0.60;;;0.60;;
15573;SDS011;7888;46.748;8.102;2022-12-29T05:55:40;0.43;;;0.43;;
15573;SDS011;7888;46.748;8.102;2022-12-29T05:58:05;0.60;;;0.43;;
15573;SDS011;7888;46.748;8.102;2022-12-29T06:00:31;0.40;;;0.40;;
15573;SDS011;7888;46.748;8.102;2022-12-29T06:02:57;1.27;;;0.63;;
15573;SDS011;7888;46.748;8.102;2022-12-29T06:05:23;0.50;;;0.40;;
15573;SDS011;7888;46.748;8.102;2022-12-29T06:07:49;0.40;;;0.40;;
15573;SDS011;7888;46.748;8.102;2022-12-29T06:10:15;0.40;;;0.40;;
15573;SDS011;7888;46.748;8.102;2022-12-29T06:12:40;0.53;;;0.40;;
15573;SDS011;7888;46.748;8.102;2022-12-29T06:15:06;0.37;;;0.37;;
15573;SDS011;7888;46.748;8.102;2022-12-29T06:17:33;2.73;;;1.10;;
15573;SDS011;7888;46.748;8.102;2022-12-29T06:19:58;2.93;;;1.40;;
15573;SDS011;7888;46.748;8.102;2022-12-29T06:22:24;1.70;;;1.50;;
15573;SDS011;7888;46.748;8.102;2022-12-29T06:24:50;1.33;;;1.23;;
15573;SDS011;7888;46.748;8.102;2022-12-29T06:27:16;1.50;;;1.20;;
15573;SDS011;7888;46.748;8.102;2022-12-29T06:29:41;1.20;;;1.00;;
15573;SDS011;7888;46.748;8.102;2022-12-29T06:32:08;1.50;;;1.20;;
15573;SDS011;7888;46.748;8.102;2022-12-29T06:34:34;1.60;;;1.27;;
15573;SDS011;7888;46.748;8.102;2022-12-29T06:36:59;1.43;;;1.20;;
15573;SDS011;7888;46.748;8.102;2022-12-29T06:39:26;1.30;;;1.10;;
15573;SDS011;7888;46.748;8.102;2022-12-29T06:41:52;1.73;;;1.47;;
15573;SDS011;7888;46.748;8.102;2022-12-29T06:44:22;5.23;;;3.73;;
15573;SDS011;7888;46.748;8.102;2022-12-29T06:46:48;6.10;;;4.80;;
15573;SDS011;7888;46.748;8.102;2022-12-29T06:49:14;16.37;;;11.60;;
15573;SDS011;7888;46.748;8.102;2022-12-29T06:51:40;16.53;;;11.70;;
15573;SDS011;7888;46.748;8.102;2022-12-29T06:54:06;9.53;;;7.00;;
15573;SDS011;7888;46.748;8.102;2022-12-29T06:56:32;7.70;;;6.10;;
15573;SDS011;7888;46.748;8.102;2022-12-29T06:58:58;6.80;;;5.40;;
15573;SDS011;7888;46.748;8.102;2022-12-29T07:01:26;6.60;;;5.40;;
15573;SDS011;7888;46.748;8.102;2022-12-29T07:03:52;5.87;;;4.50;;
15573;SDS011;7888;46.748;8.102;2022-12-29T07:06:18;3.73;;;2.70;;
15573;SDS011;7888;46.748;8.102;2022-12-29T07:08:44;3.13;;;2.63;;
15573;SDS011;7888;46.748;8.102;2022-12-29T07:11:10;4.20;;;3.07;;
15573;SDS011;7888;46.748;8.102;2022-12-29T07:13:36;4.87;;;3.07;;
15573;SDS011;7888;46.748;8.102;2022-12-29T07:16:05;3.80;;;2.47;;
15573;SDS011;7888;46.748;8.102;2022-12-29T07:18:35;2.43;;;1.70;;
15573;SDS011;7888;46.748;8.102;2022-12-29T07:21:01;3.03;;;2.17;;
15573;SDS011;7888;46.748;8.102;2022-12-29T07:23:28;3.10;;;2.10;;
15573;SDS011;7888;46.748;8.102;2022-12-29T07:28:27;2.10;;;1.90;;
15573;SDS011;7888;46.748;8.102;2022-12-29T07:30:54;3.13;;;1.70;;
15573;SDS011;7888;46.748;8.102;2022-12-29T07:33:20;2.37;;;1.47;;
15573;SDS011;7888;46.748;8.102;2022-12-29T07:35:46;1.50;;;1.40;;
15573;SDS011;7888;46.748;8.102;2022-12-29T07:38:12;1.87;;;1.70;;
15573;SDS011;7888;46.748;8.102;2022-12-29T07:40:38;1.67;;;1.50;;
15573;SDS011;7888;46.748;8.102;2022-12-29T07:43:04;2.77;;;1.40;;
15573;SDS011;7888;46.748;8.102;2022-12-29T07:45:30;1.77;;;1.37;;
15573;SDS011;7888;46.748;8.102;2022-12-29T07:47:55;3.10;;;2.03;;
15573;SDS011;7888;46.748;8.102;2022-12-29T07:50:21;2.13;;;1.53;;
15573;SDS011;7888;46.748;8.102;2022-12-29T07:52:47;1.63;;;1.30;;
15573;SDS011;7888;46.748;8.102;2022-12-29T07:55:13;1.50;;;1.30;;
15573;SDS011;7888;46.748;8.102;2022-12-29T07:57:41;3.23;;;1.20;;
15573;SDS011;7888;46.748;8.102;2022-12-29T08:00:07;1.57;;;0.93;;
15573;SDS011;7888;46.748;8.102;2022-12-29T08:02:34;1.67;;;1.10;;
15573;SDS011;7888;46.748;8.102;2022-12-29T08:05:01;1.53;;;1.40;;
15573;SDS011;7888;46.748;8.102;2022-12-29T08:07:27;2.77;;;2.17;;
15573;SDS011;7888;46.748;8.102;2022-12-29T08:09:53;3.30;;;2.73;;
15573;SDS011;7888;46.748;8.102;2022-12-29T08:12:19;10.00;;;6.43;;
15573;SDS011;7888;46.748;8.102;2022-12-29T08:14:45;9.47;;;6.77;;
15573;SDS011;7888;46.748;8.102;2022-12-29T08:17:10;12.90;;;8.17;;
15573;SDS011;7888;46.748;8.102;2022-12-29T08:19:36;4.67;;;3.17;;
15573;SDS011;7888;46.748;8.102;2022-12-29T08:22:03;4.10;;;2.43;;
15573;SDS011;7888;46.748;8.102;2022-12-29T08:24:28;3.00;;;1.90;;
15573;SDS011;7888;46.748;8.102;2022-12-29T08:26:55;3.67;;;1.77;;
15573;SDS011;7888;46.748;8.102;2022-12-29T08:29:21;3.43;;;2.37;;
15573;SDS011;7888;46.748;8.102;2022-12-29T08:31:47;3.27;;;2.50;;
15573;SDS011;7888;46.748;8.102;2022-12-29T08:34:13;3.87;;;2.80;;
15573;SDS011;7888;46.748;8.102;2022-12-29T08:36:39;5.30;;;3.50;;
15573;SDS011;7888;46.748;8.102;2022-12-29T08:39:05;7.70;;;5.00;;
15573;SDS011;7888;46.748;8.102;2022-12-29T08:41:30;7.13;;;5.77;;
15573;SDS011;7888;46.748;8.102;2022-12-29T08:43:56;12.50;;;9.57;;
15573;SDS011;7888;46.748;8.102;2022-12-29T08:46:22;16.30;;;11.13;;
15573;SDS011;7888;46.748;8.102;2022-12-29T08:48:48;13.97;;;11.43;;
15573;SDS011;7888;46.748;8.102;2022-12-29T08:51:14;11.80;;;8.90;;
15573;SDS011;7888;46.748;8.102;2022-12-29T08:53:39;11.17;;;8.30;;
15573;SDS011;7888;46.748;8.102;2022-12-29T08:56:05;8.77;;;6.90;;
15573;SDS011;7888;46.748;8.102;2022-12-29T08:58:34;15.03;;;9.87;;
15573;SDS011;7888;46.748;8.102;2022-12-29T09:01:00;12.33;;;8.00;;
15573;SDS011;7888;46.748;8.102;2022-12-29T09:03:26;9.37;;;6.23;;
15573;SDS011;7888;46.748;8.102;2022-12-29T09:05:53;6.00;;;4.27;;
15573;SDS011;7888;46.748;8.102;2022-12-29T09:08:20;7.83;;;5.07;;
15573;SDS011;7888;46.748;8.102;2022-12-29T09:10:47;7.07;;;4.90;;
15573;SDS011;7888;46.748;8.102;2022-12-29T09:13:14;5.17;;;4.13;;
15573;SDS011;7888;46.748;8.102;2022-12-29T09:15:41;3.23;;;2.60;;
15573;SDS011;7888;46.748;8.102;2022-12-29T09:18:07;3.47;;;2.10;;
15573;SDS011;7888;46.748;8.102;2022-12-29T09:20:35;3.30;;;2.00;;
15573;SDS011;7888;46.748;8.102;2022-12-29T09:23:01;2.33;;;1.80;;
15573;SDS011;7888;46.748;8.102;2022-12-29T09:25:28;1.33;;;1.17;;
15573;SDS011;7888;46.748;8.102;2022-12-29T09:27:54;2.10;;;1.57;;
15573;SDS011;7888;46.748;8.102;2022-12-29T09:30:21;1.03;;;0.80;;
15573;SDS011;7888;46.748;8.102;2022-12-29T09:32:48;1.10;;;1.00;;
15573;SDS011;7888;46.748;8.102;2022-12-29T09:35:14;2.67;;;1.27;;
15573;SDS011;7888;46.748;8.102;2022-12-29T09:37:41;3.27;;;1.73;;
15573;SDS011;7888;46.748;8.102;2022-12-29T09:40:27;2.67;;;1.50;;
15573;SDS011;7888;46.748;8.102;2022-12-29T09:43:12;1.80;;;1.33;;
15573;SDS011;7888;46.748;8.102;2022-12-29T09:46:05;4.20;;;1.90;;
15573;SDS011;7888;46.748;8.102;2022-12-29T09:49:39;1.87;;;1.70;;
15573;SDS011;7888;46.748;8.102;2022-12-29T09:52:08;1.47;;;1.30;;
15573;SDS011;7888;46.748;8.102;2022-12-29T09:54:58;1.37;;;0.93;;
15573;SDS011;7888;46.748;8.102;2022-12-29T10:00:18;0.90;;;0.70;;
15573;SDS011;7888;46.748;8.102;2022-12-29T10:02:55;0.97;;;0.60;;
15573;SDS011;7888;46.748;8.102;2022-12-29T10:05:33;0.93;;;0.40;;
15573;SDS011;7888;46.748;8.102;2022-12-29T10:14:07;2.17;;;1.63;;
15573;SDS011;7888;46.748;8.102;2022-12-29T10:25:55;1.07;;;0.73;;
15573;SDS011;7888;46.748;8.102;2022-12-29T10:28:34;0.90;;;0.70;;
15573;SDS011;7888;46.748;8.102;2022-12-29T10:31:09;4.47;;;2.67;;
15573;SDS011;7888;46.748;8.102;2022-12-29T10:33:49;6.90;;;3.43;;
15573;SDS011;7888;46.748;8.102;2022-12-29T10:36:27;4.53;;;2.80;;
15573;SDS011;7888;46.748;8.102;2022-12-29T10:39:14;1.83;;;1.27;;
15573;SDS011;7888;46.748;8.102;2022-12-29T10:41:50;1.83;;;1.00;;
15573;SDS011;7888;46.748;8.102;2022-12-29T10:44:24;1.70;;;0.90;;
15573;SDS011;7888;46.748;8.102;2022-12-29T10:46:57;0.80;;;0.70;;
15573;SDS011;7888;46.748;8.102;2022-12-29T10:49:29;1.40;;;1.23;;
15573;SDS011;7888;46.748;8.102;2022-12-29T10:52:00;2.30;;;1.63;;
15573;SDS011;7888;46.748;8.102;2022-12-29T10:54:30;3.53;;;2.00;;
15573;SDS011;7888;46.748;8.102;2022-12-29T10:57:07;2.10;;;1.77;;
15573;SDS011;7888;46.748;8.102;2022-12-29T10:59:45;3.90;;;2.50;;
15573;SDS011;7888;46.748;8.102;2022-12-29T11:07:41;2.50;;;2.00;;
15573;SDS011;7888;46.748;8.102;2022-12-29T11:12:59;2.20;;;1.40;;
15573;SDS011;7888;46.748;8.102;2022-12-29T11:15:42;1.77;;;1.30;;
15573;SDS011;7888;46.748;8.102;2022-12-29T11:18:23;1.43;;;1.20;;
15573;SDS011;7888;46.748;8.102;2022-12-29T11:21:02;1.53;;;0.90;;
15573;SDS011;7888;46.748;8.102;2022-12-29T11:23:39;1.73;;;0.90;;
15573;SDS011;7888;46.748;8.102;2022-12-29T11:28:38;0.80;;;0.80;;
15573;SDS011;7888;46.748;8.102;2022-12-29T11:31:08;1.13;;;0.73;;
15573;SDS011;7888;46.748;8.102;2022-12-29T11:33:35;0.80;;;0.70;;
15573;SDS011;7888;46.748;8.102;2022-12-29T11:38:50;2.47;;;1.30;;
15573;SDS011;7888;46.748;8.102;2022-12-29T11:41:25;5.30;;;1.80;;
15573;SDS011;7888;46.748;8.102;2022-12-29T11:44:00;1.70;;;1.23;;
15573;SDS011;7888;46.748;8.102;2022-12-29T11:46:31;2.10;;;0.90;;
15573;SDS011;7888;46.748;8.102;2022-12-29T11:49:02;1.73;;;0.93;;
15573;SDS011;7888;46.748;8.102;2022-12-29T11:51:30;1.30;;;1.20;;
15573;SDS011;7888;46.748;8.102;2022-12-29T11:54:16;2.80;;;1.53;;
15573;SDS011;7888;46.748;8.102;2022-12-29T11:56:57;1.20;;;1.10;;
15573;SDS011;7888;46.748;8.102;2022-12-29T11:59:41;1.37;;;1.20;;
15573;SDS011;7888;46.748;8.102;2022-12-29T12:05:19;1.10;;;0.87;;
15573;SDS011;7888;46.748;8.102;2022-12-29T12:08:00;2.37;;;1.13;;
15573;SDS011;7888;46.748;8.102;2022-12-29T12:10:48;1.53;;;1.27;;
15573;SDS011;7888;46.748;8.102;2022-12-29T12:13:42;1.37;;;0.90;;
15573;SDS011;7888;46.748;8.102;2022-12-29T12:16:39;1.47;;;0.90;;
15573;SDS011;7888;46.748;8.102;2022-12-29T12:19:25;1.20;;;0.90;;
15573;SDS011;7888;46.748;8.102;2022-12-29T12:22:34;0.97;;;0.87;;
15573;SDS011;7888;46.748;8.102;2022-12-29T12:25:19;1.10;;;0.80;;
15573;SDS011;7888;46.748;8.102;2022-12-29T12:27:57;0.97;;;0.97;;
15573;SDS011;7888;46.748;8.102;2022-12-29T12:31:21;0.87;;;0.83;;
15573;SDS011;7888;46.748;8.102;2022-12-29T12:34:32;0.67;;;0.67;;
15573;SDS011;7888;46.748;8.102;2022-12-29T13:00:42;1.87;;;1.00;;
15573;SDS011;7888;46.748;8.102;2022-12-29T13:17:35;2.43;;;1.13;;
15573;SDS011;7888;46.748;8.102;2022-12-29T13:20:32;2.30;;;1.80;;
15573;SDS011;7888;46.748;8.102;2022-12-29T13:23:17;2.37;;;1.90;;
15573;SDS011;7888;46.748;8.102;2022-12-29T13:28:52;2.70;;;2.50;;
15573;SDS011;7888;46.748;8.102;2022-12-29T13:37:51;2.63;;;1.70;;
15573;SDS011;7888;46.748;8.102;2022-12-29T13:40:26;2.93;;;2.10;;
15573;SDS011;7888;46.748;8.102;2022-12-29T13:43:00;3.20;;;1.90;;
15573;SDS011;7888;46.748;8.102;2022-12-29T13:45:28;1.37;;;1.27;;
15573;SDS011;7888;46.748;8.102;2022-12-29T13:48:07;1.47;;;1.00;;
15573;SDS011;7888;46.748;8.102;2022-12-29T13:50:51;1.60;;;0.77;;
15573;SDS011;7888;46.748;8.102;2022-12-29T13:58:53;1.73;;;0.87;;
15573;SDS011;7888;46.748;8.102;2022-12-29T14:02:37;1.37;;;1.20;;
15573;SDS011;7888;46.748;8.102;2022-12-29T14:07:25;2.97;;;1.43;;
15573;SDS011;7888;46.748;8.102;2022-12-29T14:09:52;2.10;;;1.50;;
15573;SDS011;7888;46.748;8.102;2022-12-29T14:17:34;1.30;;;0.93;;
15573;SDS011;7888;46.748;8.102;2022-12-29T14:20:01;0.90;;;0.90;;
15573;SDS011;7888;46.748;8.102;2022-12-29T14:22:32;1.10;;;1.00;;
15573;SDS011;7888;46.748;8.102;2022-12-29T14:24:58;1.30;;;0.90;;
15573;SDS011;7888;46.748;8.102;2022-12-29T14:27:42;1.30;;;1.03;;
15573;SDS011;7888;46.748;8.102;2022-12-29T14:30:42;1.83;;;1.20;;
15573;SDS011;7888;46.748;8.102;2022-12-29T14:33:14;2.13;;;1.60;;
15573;SDS011;7888;46.748;8.102;2022-12-29T14:35:43;2.70;;;1.40;;
15573;SDS011;7888;46.748;8.102;2022-12-29T14:38:47;2.23;;;1.60;;
15573;SDS011;7888;46.748;8.102;2022-12-29T14:41:17;2.57;;;1.47;;
15573;SDS011;7888;46.748;8.102;2022-12-29T14:43:58;1.07;;;0.97;;
15573;SDS011;7888;46.748;8.102;2022-12-29T14:46:54;1.90;;;0.90;;
15573;SDS011;7888;46.748;8.102;2022-12-29T14:49:31;1.20;;;0.80;;
15573;SDS011;7888;46.748;8.102;2022-12-29T14:52:15;1.10;;;0.80;;
15573;SDS011;7888;46.748;8.102;2022-12-29T14:54:51;1.00;;;0.87;;
15573;SDS011;7888;46.748;8.102;2022-12-29T14:57:25;0.70;;;0.70;;
15573;SDS011;7888;46.748;8.102;2022-12-29T15:00:12;1.37;;;0.80;;
15573;SDS011;7888;46.748;8.102;2022-12-29T15:02:50;1.20;;;0.80;;
15573;SDS011;7888;46.748;8.102;2022-12-29T15:05:50;1.90;;;1.27;;
15573;SDS011;7888;46.748;8.102;2022-12-29T15:08:25;2.13;;;1.83;;
15573;SDS011;7888;46.748;8.102;2022-12-29T15:11:02;3.83;;;2.70;;
15573;SDS011;7888;46.748;8.102;2022-12-29T15:13:37;2.40;;;2.10;;
15573;SDS011;7888;46.748;8.102;2022-12-29T15:19:20;0.60;;;0.60;;
15573;SDS011;7888;46.748;8.102;2022-12-29T15:21:48;1.03;;;0.90;;
15573;SDS011;7888;46.748;8.102;2022-12-29T15:24:15;2.90;;;0.90;;
15573;SDS011;7888;46.748;8.102;2022-12-29T15:26:46;4.53;;;1.80;;
15573;SDS011;7888;46.748;8.102;2022-12-29T15:32:01;2.30;;;1.00;;
15573;SDS011;7888;46.748;8.102;2022-12-29T15:34:45;1.27;;;0.93;;
15573;SDS011;7888;46.748;8.102;2022-12-29T15:37:19;0.93;;;0.80;;
15573;SDS011;7888;46.748;8.102;2022-12-29T15:39:55;0.73;;;0.70;;
15573;SDS011;7888;46.748;8.102;2022-12-29T15:45:17;1.60;;;1.30;;
15573;SDS011;7888;46.748;8.102;2022-12-29T15:47:43;2.23;;;1.33;;
15573;SDS011;7888;46.748;8.102;2022-12-29T15:50:15;1.67;;;1.00;;
15573;SDS011;7888;46.748;8.102;2022-12-29T15:52:57;2.67;;;1.00;;
15573;SDS011;7888;46.748;8.102;2022-12-29T15:55:30;3.27;;;0.80;;
15573;SDS011;7888;46.748;8.102;2022-12-29T15:58:17;3.07;;;1.50;;
15573;SDS011;7888;46.748;8.102;2022-12-29T16:00:56;5.57;;;4.13;;
15573;SDS011;7888;46.748;8.102;2022-12-29T16:03:26;3.77;;;2.97;;
15573;SDS011;7888;46.748;8.102;2022-12-29T16:06:09;2.10;;;1.50;;
15573;SDS011;7888;46.748;8.102;2022-12-29T16:09:03;4.37;;;1.20;;
15573;SDS011;7888;46.748;8.102;2022-12-29T16:11:40;1.30;;;0.97;;
15573;SDS011;7888;46.748;8.102;2022-12-29T16:14:19;1.30;;;0.90;;
15573;SDS011;7888;46.748;8.102;2022-12-29T16:17:00;1.67;;;0.87;;
15573;SDS011;7888;46.748;8.102;2022-12-29T16:19:37;1.27;;;0.70;;
15573;SDS011;7888;46.748;8.102;2022-12-29T16:22:15;0.90;;;0.60;;
15573;SDS011;7888;46.748;8.102;2022-12-29T16:24:56;1.20;;;0.83;;
15573;SDS011;7888;46.748;8.102;2022-12-29T16:27:32;4.07;;;1.17;;
15573;SDS011;7888;46.748;8.102;2022-12-29T16:30:05;3.70;;;2.77;;
15573;SDS011;7888;46.748;8.102;2022-12-29T16:32:45;4.87;;;3.43;;
15573;SDS011;7888;46.748;8.102;2022-12-29T16:35:19;5.47;;;3.83;;
15573;SDS011;7888;46.748;8.102;2022-12-29T16:40:49;5.13;;;4.07;;
15573;SDS011;7888;46.748;8.102;2022-12-29T16:43:23;3.07;;;2.70;;
15573;SDS011;7888;46.748;8.102;2022-12-29T16:48:25;2.40;;;1.70;;
15573;SDS011;7888;46.748;8.102;2022-12-29T16:51:06;3.23;;;2.53;;
15573;SDS011;7888;46.748;8.102;2022-12-29T16:53:41;4.40;;;2.50;;
15573;SDS011;7888;46.748;8.102;2022-12-29T16:56:15;3.10;;;1.80;;
15573;SDS011;7888;46.748;8.102;2022-12-29T16:59:38;2.17;;;1.97;;
15573;SDS011;7888;46.748;8.102;2022-12-29T17:02:16;2.33;;;2.00;;
15573;SDS011;7888;46.748;8.102;2022-12-29T17:04:47;3.10;;;2.10;;
15573;SDS011;7888;46.748;8.102;2022-12-29T17:07:19;1.53;;;1.43;;
15573;SDS011;7888;46.748;8.102;2022-12-29T17:09:50;1.60;;;1.50;;
15573;SDS011;7888;46.748;8.102;2022-12-29T17:12:27;2.40;;;1.30;;
15573;SDS011;7888;46.748;8.102;2022-12-29T17:14:59;2.77;;;1.53;;
15573;SDS011;7888;46.748;8.102;2022-12-29T17:17:44;2.50;;;1.50;;
15573;SDS011;7888;46.748;8.102;2022-12-29T17:20:22;3.90;;;2.43;;
15573;SDS011;7888;46.748;8.102;2022-12-29T17:22:52;5.70;;;4.13;;
15573;SDS011;7888;46.748;8.102;2022-12-29T17:25:19;9.10;;;6.83;;
15573;SDS011;7888;46.748;8.102;2022-12-29T17:30:27;3.63;;;3.07;;
15573;SDS011;7888;46.748;8.102;2022-12-29T17:35:33;1.40;;;1.30;;
15573;SDS011;7888;46.748;8.102;2022-12-29T17:37:58;3.20;;;1.50;;
15573;SDS011;7888;46.748;8.102;2022-12-29T17:40:28;3.73;;;1.70;;
15573;SDS011;7888;46.748;8.102;2022-12-29T17:42:57;5.20;;;3.73;;
15573;SDS011;7888;46.748;8.102;2022-12-29T17:45:31;10.27;;;8.37;;
15573;SDS011;7888;46.748;8.102;2022-12-29T17:47:57;10.33;;;8.13;;
15573;SDS011;7888;46.748;8.102;2022-12-29T17:50:26;7.47;;;6.23;;
15573;SDS011;7888;46.748;8.102;2022-12-29T17:52:58;6.10;;;5.33;;
15573;SDS011;7888;46.748;8.102;2022-12-29T17:55:35;5.03;;;4.37;;
15573;SDS011;7888;46.748;8.102;2022-12-29T17:58:01;3.87;;;3.20;;
15573;SDS011;7888;46.748;8.102;2022-12-29T18:00:34;4.57;;;3.20;;